sensor_id;sensor_type;location;lat;lon;timestamp;P1;durP1;ratioP1;P2;durP2;ratioP2
6527;SDS011;64597;42.664;23.256;2023-07-28T00:01:24;2.22;;;2.03;;
6527;SDS011;64597;42.664;23.256;2023-07-28T00:03:49;2.95;;;2.10;;
6527;SDS011;64597;42.664;23.256;2023-07-28T00:06:15;2.22;;;2.03;;
6527;SDS011;64597;42.664;23.256;2023-07-28T00:08:40;3.42;;;2.30;;
6527;SDS011;64597;42.664;23.256;2023-07-28T00:11:11;2.10;;;1.90;;
6527;SDS011;64597;42.664;23.256;2023-07-28T00:13:38;2.13;;;1.85;;
6527;SDS011;64597;42.664;23.256;2023-07-28T00:16:04;2.55;;;2.00;;
6527;SDS011;64597;42.664;23.256;2023-07-28T00:18:30;1.95;;;1.73;;
6527;SDS011;64597;42.664;23.256;2023-07-28T00:20:56;1.95;;;1.80;;
6527;SDS011;64597;42.664;23.256;2023-07-28T00:23:22;2.13;;;1.92;;
6527;SDS011;64597;42.664;23.256;2023-07-28T00:25:47;2.33;;;1.70;;
6527;SDS011;64597;42.664;23.256;2023-07-28T00:28:13;2.40;;;1.95;;
6527;SDS011;64597;42.664;23.256;2023-07-28T00:30:39;2.08;;;1.98;;
6527;SDS011;64597;42.664;23.256;2023-07-28T00:33:05;2.55;;;2.13;;
6527;SDS011;64597;42.664;23.256;2023-07-28T00:35:30;1.90;;;1.80;;
6527;SDS011;64597;42.664;23.256;2023-07-28T00:37:56;2.60;;;1.60;;
6527;SDS011;64597;42.664;23.256;2023-07-28T00:40:21;2.17;;;1.60;;
6527;SDS011;64597;42.664;23.256;2023-07-28T00:42:48;5.07;;;2.00;;
6527;SDS011;64597;42.664;23.256;2023-07-28T00:45:13;2.60;;;2.35;;
6527;SDS011;64597;42.664;23.256;2023-07-28T00:47:39;2.58;;;2.10;;
6527;SDS011;64597;42.664;23.256;2023-07-28T00:50:05;2.10;;;1.77;;
6527;SDS011;64597;42.664;23.256;2023-07-28T00:52:33;2.40;;;2.13;;
6527;SDS011;64597;42.664;23.256;2023-07-28T00:54:59;1.85;;;1.70;;
6527;SDS011;64597;42.664;23.256;2023-07-28T00:57:25;2.63;;;2.10;;
6527;SDS011;64597;42.664;23.256;2023-07-28T00:59:50;4.13;;;2.17;;
6527;SDS011;64597;42.664;23.256;2023-07-28T01:02:16;2.70;;;2.00;;
6527;SDS011;64597;42.664;23.256;2023-07-28T01:04:41;2.17;;;1.98;;
6527;SDS011;64597;42.664;23.256;2023-07-28T01:07:12;3.15;;;2.17;;
6527;SDS011;64597;42.664;23.256;2023-07-28T01:09:50;2.88;;;2.15;;
6527;SDS011;64597;42.664;23.256;2023-07-28T01:12:17;3.80;;;2.30;;
6527;SDS011;64597;42.664;23.256;2023-07-28T01:14:43;2.33;;;2.10;;
6527;SDS011;64597;42.664;23.256;2023-07-28T01:17:09;3.47;;;2.30;;
6527;SDS011;64597;42.664;23.256;2023-07-28T01:19:35;2.45;;;2.13;;
6527;SDS011;64597;42.664;23.256;2023-07-28T01:22:08;2.60;;;2.40;;
6527;SDS011;64597;42.664;23.256;2023-07-28T01:27:51;2.53;;;2.17;;
6527;SDS011;64597;42.664;23.256;2023-07-28T01:30:18;3.00;;;2.47;;
6527;SDS011;64597;42.664;23.256;2023-07-28T01:32:46;2.53;;;2.05;;
6527;SDS011;64597;42.664;23.256;2023-07-28T01:35:12;2.65;;;2.30;;
6527;SDS011;64597;42.664;23.256;2023-07-28T01:37:38;3.60;;;2.60;;
6527;SDS011;64597;42.664;23.256;2023-07-28T01:40:03;3.40;;;2.60;;
6527;SDS011;64597;42.664;23.256;2023-07-28T01:42:29;2.58;;;2.38;;
6527;SDS011;64597;42.664;23.256;2023-07-28T01:44:55;4.60;;;2.60;;
6527;SDS011;64597;42.664;23.256;2023-07-28T01:47:20;4.07;;;3.00;;
6527;SDS011;64597;42.664;23.256;2023-07-28T01:49:46;3.50;;;2.65;;
6527;SDS011;64597;42.664;23.256;2023-07-28T01:52:11;3.50;;;2.95;;
6527;SDS011;64597;42.664;23.256;2023-07-28T01:54:37;4.88;;;3.67;;
6527;SDS011;64597;42.664;23.256;2023-07-28T01:57:02;4.50;;;4.10;;
6527;SDS011;64597;42.664;23.256;2023-07-28T01:59:28;5.50;;;3.60;;
6527;SDS011;64597;42.664;23.256;2023-07-28T02:01:53;3.97;;;3.40;;
6527;SDS011;64597;42.664;23.256;2023-07-28T02:04:19;3.35;;;3.05;;
6527;SDS011;64597;42.664;23.256;2023-07-28T02:06:44;4.28;;;3.88;;
6527;SDS011;64597;42.664;23.256;2023-07-28T02:09:09;4.78;;;4.35;;
6527;SDS011;64597;42.664;23.256;2023-07-28T02:11:35;6.22;;;4.68;;
6527;SDS011;64597;42.664;23.256;2023-07-28T02:14:00;4.50;;;4.15;;
6527;SDS011;64597;42.664;23.256;2023-07-28T02:16:26;3.75;;;3.45;;
6527;SDS011;64597;42.664;23.256;2023-07-28T02:18:53;4.53;;;3.65;;
6527;SDS011;64597;42.664;23.256;2023-07-28T02:21:19;5.03;;;3.83;;
6527;SDS011;64597;42.664;23.256;2023-07-28T02:23:44;4.10;;;3.70;;
6527;SDS011;64597;42.664;23.256;2023-07-28T02:26:09;4.38;;;3.90;;
6527;SDS011;64597;42.664;23.256;2023-07-28T02:28:35;5.32;;;3.40;;
6527;SDS011;64597;42.664;23.256;2023-07-28T02:31:00;3.42;;;2.92;;
6527;SDS011;64597;42.664;23.256;2023-07-28T02:33:26;3.47;;;3.15;;
6527;SDS011;64597;42.664;23.256;2023-07-28T02:35:54;3.67;;;3.38;;
6527;SDS011;64597;42.664;23.256;2023-07-28T02:38:20;3.50;;;3.20;;
6527;SDS011;64597;42.664;23.256;2023-07-28T02:40:46;3.78;;;3.15;;
6527;SDS011;64597;42.664;23.256;2023-07-28T02:43:11;3.47;;;3.17;;
6527;SDS011;64597;42.664;23.256;2023-07-28T02:45:37;3.30;;;2.95;;
6527;SDS011;64597;42.664;23.256;2023-07-28T02:48:02;5.13;;;3.35;;
6527;SDS011;64597;42.664;23.256;2023-07-28T02:50:28;3.58;;;2.95;;
6527;SDS011;64597;42.664;23.256;2023-07-28T02:52:53;5.22;;;3.25;;
6527;SDS011;64597;42.664;23.256;2023-07-28T02:55:19;3.42;;;3.13;;
6527;SDS011;64597;42.664;23.256;2023-07-28T02:57:44;5.05;;;2.90;;
6527;SDS011;64597;42.664;23.256;2023-07-28T03:00:10;3.70;;;2.70;;
6527;SDS011;64597;42.664;23.256;2023-07-28T03:02:36;3.25;;;2.78;;
6527;SDS011;64597;42.664;23.256;2023-07-28T03:05:01;3.35;;;3.00;;
6527;SDS011;64597;42.664;23.256;2023-07-28T03:07:27;4.95;;;2.75;;
6527;SDS011;64597;42.664;23.256;2023-07-28T03:09:52;2.92;;;2.70;;
6527;SDS011;64597;42.664;23.256;2023-07-28T03:12:18;7.93;;;3.60;;
6527;SDS011;64597;42.664;23.256;2023-07-28T03:14:43;9.13;;;4.13;;
6527;SDS011;64597;42.664;23.256;2023-07-28T03:17:08;4.47;;;3.28;;
6527;SDS011;64597;42.664;23.256;2023-07-28T03:19:34;5.25;;;3.78;;
6527;SDS011;64597;42.664;23.256;2023-07-28T03:21:59;5.50;;;3.45;;
6527;SDS011;64597;42.664;23.256;2023-07-28T03:24:25;3.83;;;3.20;;
6527;SDS011;64597;42.664;23.256;2023-07-28T03:26:50;4.93;;;3.97;;
6527;SDS011;64597;42.664;23.256;2023-07-28T03:29:16;4.47;;;3.90;;
6527;SDS011;64597;42.664;23.256;2023-07-28T03:31:41;3.80;;;3.40;;
6527;SDS011;64597;42.664;23.256;2023-07-28T03:34:06;5.13;;;3.60;;
6527;SDS011;64597;42.664;23.256;2023-07-28T03:36:32;4.75;;;3.40;;
6527;SDS011;64597;42.664;23.256;2023-07-28T03:38:57;6.45;;;3.63;;
6527;SDS011;64597;42.664;23.256;2023-07-28T03:41:23;3.83;;;3.45;;
6527;SDS011;64597;42.664;23.256;2023-07-28T03:43:48;4.05;;;3.58;;
6527;SDS011;64597;42.664;23.256;2023-07-28T03:46:13;3.95;;;3.65;;
6527;SDS011;64597;42.664;23.256;2023-07-28T03:48:39;5.68;;;3.30;;
6527;SDS011;64597;42.664;23.256;2023-07-28T03:51:04;4.10;;;3.70;;
6527;SDS011;64597;42.664;23.256;2023-07-28T03:53:30;4.80;;;4.40;;
6527;SDS011;64597;42.664;23.256;2023-07-28T03:55:55;4.18;;;3.65;;
6527;SDS011;64597;42.664;23.256;2023-07-28T03:58:26;4.65;;;3.47;;
6527;SDS011;64597;42.664;23.256;2023-07-28T04:00:52;6.85;;;3.72;;
6527;SDS011;64597;42.664;23.256;2023-07-28T04:03:21;5.72;;;3.42;;
6527;SDS011;64597;42.664;23.256;2023-07-28T04:05:46;5.63;;;3.95;;
6527;SDS011;64597;42.664;23.256;2023-07-28T04:08:12;5.75;;;3.75;;
6527;SDS011;64597;42.664;23.256;2023-07-28T04:10:37;6.20;;;3.90;;
6527;SDS011;64597;42.664;23.256;2023-07-28T04:13:02;5.47;;;4.35;;
6527;SDS011;64597;42.664;23.256;2023-07-28T04:15:28;4.40;;;4.00;;
6527;SDS011;64597;42.664;23.256;2023-07-28T04:17:53;4.47;;;3.53;;
6527;SDS011;64597;42.664;23.256;2023-07-28T04:20:19;5.40;;;4.07;;
6527;SDS011;64597;42.664;23.256;2023-07-28T04:22:44;7.32;;;4.40;;
6527;SDS011;64597;42.664;23.256;2023-07-28T04:25:10;5.93;;;4.60;;
6527;SDS011;64597;42.664;23.256;2023-07-28T04:27:35;6.57;;;3.97;;
6527;SDS011;64597;42.664;23.256;2023-07-28T04:30:03;6.15;;;4.45;;
6527;SDS011;64597;42.664;23.256;2023-07-28T04:32:29;8.27;;;4.78;;
6527;SDS011;64597;42.664;23.256;2023-07-28T04:34:55;5.68;;;4.47;;
6527;SDS011;64597;42.664;23.256;2023-07-28T04:37:21;4.75;;;4.13;;
6527;SDS011;64597;42.664;23.256;2023-07-28T04:39:46;5.70;;;4.80;;
6527;SDS011;64597;42.664;23.256;2023-07-28T04:42:12;5.78;;;5.00;;
6527;SDS011;64597;42.664;23.256;2023-07-28T04:44:37;6.85;;;5.07;;
6527;SDS011;64597;42.664;23.256;2023-07-28T04:47:05;8.23;;;4.50;;
6527;SDS011;64597;42.664;23.256;2023-07-28T04:49:37;3.80;;;2.40;;
6527;SDS011;64597;42.664;23.256;2023-07-28T04:52:52;7.20;;;4.13;;
6527;SDS011;64597;42.664;23.256;2023-07-28T04:55:34;4.97;;;3.60;;
6527;SDS011;64597;42.664;23.256;2023-07-28T04:58:10;6.75;;;3.70;;
6527;SDS011;64597;42.664;23.256;2023-07-28T05:00:44;4.80;;;3.63;;
6527;SDS011;64597;42.664;23.256;2023-07-28T05:03:16;6.20;;;3.85;;
6527;SDS011;64597;42.664;23.256;2023-07-28T05:05:45;7.75;;;4.03;;
6527;SDS011;64597;42.664;23.256;2023-07-28T05:08:10;8.45;;;3.58;;
6527;SDS011;64597;42.664;23.256;2023-07-28T05:10:36;4.00;;;3.60;;
6527;SDS011;64597;42.664;23.256;2023-07-28T05:13:02;9.75;;;5.53;;
6527;SDS011;64597;42.664;23.256;2023-07-28T05:15:30;11.05;;;4.68;;
6527;SDS011;64597;42.664;23.256;2023-07-28T05:17:55;10.27;;;5.47;;
6527;SDS011;64597;42.664;23.256;2023-07-28T05:20:21;8.35;;;5.45;;
6527;SDS011;64597;42.664;23.256;2023-07-28T05:22:47;7.50;;;3.65;;
6527;SDS011;64597;42.664;23.256;2023-07-28T05:25:12;4.47;;;4.07;;
6527;SDS011;64597;42.664;23.256;2023-07-28T05:27:38;5.28;;;4.05;;
6527;SDS011;64597;42.664;23.256;2023-07-28T05:30:03;6.63;;;4.55;;
6527;SDS011;64597;42.664;23.256;2023-07-28T05:32:29;6.70;;;4.55;;
6527;SDS011;64597;42.664;23.256;2023-07-28T05:34:55;5.53;;;3.90;;
6527;SDS011;64597;42.664;23.256;2023-07-28T05:37:20;4.35;;;3.95;;
6527;SDS011;64597;42.664;23.256;2023-07-28T05:39:45;5.15;;;3.53;;
6527;SDS011;64597;42.664;23.256;2023-07-28T05:42:11;4.63;;;4.18;;
6527;SDS011;64597;42.664;23.256;2023-07-28T05:44:36;5.97;;;4.13;;
6527;SDS011;64597;42.664;23.256;2023-07-28T05:47:02;7.82;;;3.45;;
6527;SDS011;64597;42.664;23.256;2023-07-28T05:49:27;5.20;;;4.70;;
6527;SDS011;64597;42.664;23.256;2023-07-28T05:51:53;8.13;;;4.82;;
6527;SDS011;64597;42.664;23.256;2023-07-28T05:54:21;3.95;;;3.47;;
6527;SDS011;64597;42.664;23.256;2023-07-28T05:56:46;4.30;;;3.90;;
6527;SDS011;64597;42.664;23.256;2023-07-28T05:59:12;5.18;;;3.55;;
6527;SDS011;64597;42.664;23.256;2023-07-28T06:01:37;7.65;;;4.55;;
6527;SDS011;64597;42.664;23.256;2023-07-28T06:04:03;5.53;;;3.80;;
6527;SDS011;64597;42.664;23.256;2023-07-28T06:06:29;7.25;;;4.20;;
6527;SDS011;64597;42.664;23.256;2023-07-28T06:08:54;10.02;;;5.07;;
6527;SDS011;64597;42.664;23.256;2023-07-28T06:11:20;8.30;;;4.97;;
6527;SDS011;64597;42.664;23.256;2023-07-28T06:13:45;7.88;;;4.25;;
6527;SDS011;64597;42.664;23.256;2023-07-28T06:16:12;5.72;;;3.40;;
6527;SDS011;64597;42.664;23.256;2023-07-28T06:18:38;5.88;;;3.53;;
6527;SDS011;64597;42.664;23.256;2023-07-28T06:21:03;4.43;;;3.55;;
6527;SDS011;64597;42.664;23.256;2023-07-28T06:23:29;13.48;;;4.13;;
6527;SDS011;64597;42.664;23.256;2023-07-28T06:25:55;4.22;;;3.03;;
6527;SDS011;64597;42.664;23.256;2023-07-28T06:28:20;5.57;;;3.40;;
6527;SDS011;64597;42.664;23.256;2023-07-28T06:30:46;5.57;;;4.05;;
6527;SDS011;64597;42.664;23.256;2023-07-28T06:33:11;6.07;;;4.18;;
6527;SDS011;64597;42.664;23.256;2023-07-28T06:35:37;6.22;;;4.50;;
6527;SDS011;64597;42.664;23.256;2023-07-28T06:38:03;4.85;;;3.80;;
6527;SDS011;64597;42.664;23.256;2023-07-28T06:40:29;7.65;;;4.47;;
6527;SDS011;64597;42.664;23.256;2023-07-28T06:42:54;6.35;;;3.75;;
6527;SDS011;64597;42.664;23.256;2023-07-28T06:45:20;7.45;;;4.18;;
6527;SDS011;64597;42.664;23.256;2023-07-28T06:47:46;6.07;;;3.70;;
6527;SDS011;64597;42.664;23.256;2023-07-28T06:50:11;6.03;;;2.90;;
6527;SDS011;64597;42.664;23.256;2023-07-28T06:52:38;5.28;;;3.10;;
6527;SDS011;64597;42.664;23.256;2023-07-28T06:55:04;4.55;;;3.45;;
6527;SDS011;64597;42.664;23.256;2023-07-28T06:57:30;4.18;;;3.13;;
6527;SDS011;64597;42.664;23.256;2023-07-28T06:59:56;3.08;;;2.80;;
6527;SDS011;64597;42.664;23.256;2023-07-28T07:02:22;4.28;;;3.83;;
6527;SDS011;64597;42.664;23.256;2023-07-28T07:04:48;4.18;;;3.40;;
6527;SDS011;64597;42.664;23.256;2023-07-28T07:07:13;4.72;;;3.53;;
6527;SDS011;64597;42.664;23.256;2023-07-28T07:09:39;6.15;;;3.38;;
6527;SDS011;64597;42.664;23.256;2023-07-28T07:12:06;8.32;;;3.53;;
6527;SDS011;64597;42.664;23.256;2023-07-28T07:14:35;5.03;;;3.42;;
6527;SDS011;64597;42.664;23.256;2023-07-28T07:17:00;4.65;;;3.80;;
6527;SDS011;64597;42.664;23.256;2023-07-28T07:19:29;5.65;;;3.25;;
6527;SDS011;64597;42.664;23.256;2023-07-28T07:21:55;5.72;;;3.28;;
6527;SDS011;64597;42.664;23.256;2023-07-28T07:24:21;5.10;;;3.13;;
6527;SDS011;64597;42.664;23.256;2023-07-28T07:26:46;3.38;;;3.08;;
6527;SDS011;64597;42.664;23.256;2023-07-28T07:29:13;3.63;;;3.33;;
6527;SDS011;64597;42.664;23.256;2023-07-28T07:31:38;4.47;;;3.00;;
6527;SDS011;64597;42.664;23.256;2023-07-28T07:34:04;6.88;;;3.50;;
6527;SDS011;64597;42.664;23.256;2023-07-28T07:36:29;6.07;;;3.10;;
6527;SDS011;64597;42.664;23.256;2023-07-28T07:38:55;3.70;;;2.78;;
6527;SDS011;64597;42.664;23.256;2023-07-28T07:41:21;3.88;;;2.92;;
6527;SDS011;64597;42.664;23.256;2023-07-28T07:43:48;6.72;;;3.05;;
6527;SDS011;64597;42.664;23.256;2023-07-28T07:46:14;4.35;;;2.85;;
6527;SDS011;64597;42.664;23.256;2023-07-28T07:48:41;5.40;;;2.95;;
6527;SDS011;64597;42.664;23.256;2023-07-28T07:51:06;6.57;;;3.75;;
6527;SDS011;64597;42.664;23.256;2023-07-28T07:53:33;6.70;;;3.30;;
6527;SDS011;64597;42.664;23.256;2023-07-28T07:55:58;4.85;;;3.55;;
6527;SDS011;64597;42.664;23.256;2023-07-28T07:58:24;7.68;;;3.50;;
6527;SDS011;64597;42.664;23.256;2023-07-28T08:00:49;4.30;;;2.80;;
6527;SDS011;64597;42.664;23.256;2023-07-28T08:03:15;4.45;;;2.95;;
6527;SDS011;64597;42.664;23.256;2023-07-28T08:05:40;9.80;;;3.38;;
6527;SDS011;64597;42.664;23.256;2023-07-28T08:08:06;4.05;;;3.03;;
6527;SDS011;64597;42.664;23.256;2023-07-28T08:10:32;5.55;;;2.83;;
6527;SDS011;64597;42.664;23.256;2023-07-28T08:12:58;4.32;;;3.03;;
6527;SDS011;64597;42.664;23.256;2023-07-28T08:15:24;5.22;;;3.42;;
6527;SDS011;64597;42.664;23.256;2023-07-28T08:17:50;4.28;;;2.97;;
6527;SDS011;64597;42.664;23.256;2023-07-28T08:20:16;5.88;;;3.00;;
6527;SDS011;64597;42.664;23.256;2023-07-28T08:22:41;8.85;;;3.50;;
6527;SDS011;64597;42.664;23.256;2023-07-28T08:25:07;3.05;;;2.67;;
6527;SDS011;64597;42.664;23.256;2023-07-28T08:27:33;4.55;;;2.70;;
6527;SDS011;64597;42.664;23.256;2023-07-28T08:29:58;9.45;;;3.00;;
6527;SDS011;64597;42.664;23.256;2023-07-28T08:32:24;5.57;;;3.30;;
6527;SDS011;64597;42.664;23.256;2023-07-28T08:34:49;6.97;;;3.80;;
6527;SDS011;64597;42.664;23.256;2023-07-28T08:37:15;4.53;;;3.00;;
6527;SDS011;64597;42.664;23.256;2023-07-28T08:39:40;5.05;;;2.63;;
6527;SDS011;64597;42.664;23.256;2023-07-28T08:42:05;3.85;;;2.58;;
6527;SDS011;64597;42.664;23.256;2023-07-28T08:44:32;4.60;;;2.90;;
6527;SDS011;64597;42.664;23.256;2023-07-28T08:46:59;5.47;;;2.80;;
6527;SDS011;64597;42.664;23.256;2023-07-28T08:49:25;3.97;;;2.83;;
6527;SDS011;64597;42.664;23.256;2023-07-28T08:51:51;3.80;;;2.63;;
6527;SDS011;64597;42.664;23.256;2023-07-28T08:54:22;5.65;;;2.83;;
6527;SDS011;64597;42.664;23.256;2023-07-28T08:56:47;4.68;;;3.33;;
6527;SDS011;64597;42.664;23.256;2023-07-28T08:59:20;6.15;;;3.20;;
6527;SDS011;64597;42.664;23.256;2023-07-28T09:01:51;5.25;;;3.22;;
6527;SDS011;64597;42.664;23.256;2023-07-28T09:04:18;3.35;;;3.05;;
6527;SDS011;64597;42.664;23.256;2023-07-28T09:06:45;2.85;;;2.65;;
6527;SDS011;64597;42.664;23.256;2023-07-28T09:09:12;4.93;;;2.97;;
6527;SDS011;64597;42.664;23.256;2023-07-28T09:11:45;6.97;;;3.47;;
6527;SDS011;64597;42.664;23.256;2023-07-28T09:14:19;4.80;;;3.40;;
6527;SDS011;64597;42.664;23.256;2023-07-28T09:16:46;4.82;;;3.08;;
6527;SDS011;64597;42.664;23.256;2023-07-28T09:19:13;5.22;;;2.67;;
6527;SDS011;64597;42.664;23.256;2023-07-28T09:21:40;4.30;;;3.00;;
6527;SDS011;64597;42.664;23.256;2023-07-28T09:24:09;6.22;;;2.90;;
6527;SDS011;64597;42.664;23.256;2023-07-28T09:26:46;4.65;;;2.90;;
6527;SDS011;64597;42.664;23.256;2023-07-28T09:29:22;9.63;;;4.32;;
6527;SDS011;64597;42.664;23.256;2023-07-28T09:31:48;5.30;;;2.78;;
6527;SDS011;64597;42.664;23.256;2023-07-28T09:34:26;3.75;;;2.80;;
6527;SDS011;64597;42.664;23.256;2023-07-28T09:36:56;3.13;;;2.83;;
6527;SDS011;64597;42.664;23.256;2023-07-28T09:39:23;4.63;;;2.80;;
6527;SDS011;64597;42.664;23.256;2023-07-28T09:41:50;7.65;;;3.05;;
6527;SDS011;64597;42.664;23.256;2023-07-28T09:44:16;5.22;;;2.72;;
6527;SDS011;64597;42.664;23.256;2023-07-28T09:46:51;9.82;;;3.35;;
6527;SDS011;64597;42.664;23.256;2023-07-28T09:49:22;3.08;;;2.50;;
6527;SDS011;64597;42.664;23.256;2023-07-28T09:51:53;4.15;;;2.72;;
6527;SDS011;64597;42.664;23.256;2023-07-28T09:54:24;5.70;;;3.40;;
6527;SDS011;64597;42.664;23.256;2023-07-28T09:56:57;3.67;;;2.72;;
6527;SDS011;64597;42.664;23.256;2023-07-28T09:59:30;6.22;;;3.60;;
6527;SDS011;64597;42.664;23.256;2023-07-28T10:02:00;3.28;;;2.97;;
6527;SDS011;64597;42.664;23.256;2023-07-28T10:04:27;5.25;;;2.38;;
6527;SDS011;64597;42.664;23.256;2023-07-28T10:06:54;3.67;;;2.90;;
6527;SDS011;64597;42.664;23.256;2023-07-28T10:09:30;5.13;;;2.92;;
6527;SDS011;64597;42.664;23.256;2023-07-28T10:11:58;5.50;;;3.00;;
6527;SDS011;64597;42.664;23.256;2023-07-28T10:14:34;3.78;;;3.40;;
6527;SDS011;64597;42.664;23.256;2023-07-28T10:17:03;3.30;;;3.00;;
6527;SDS011;64597;42.664;23.256;2023-07-28T10:19:29;5.80;;;2.88;;
6527;SDS011;64597;42.664;23.256;2023-07-28T10:22:06;4.22;;;2.78;;
6527;SDS011;64597;42.664;23.256;2023-07-28T10:33:45;3.40;;;2.08;;
6527;SDS011;64597;42.664;23.256;2023-07-28T10:38:37;4.57;;;2.20;;
6527;SDS011;64597;42.664;23.256;2023-07-28T10:41:20;3.03;;;2.25;;
6527;SDS011;64597;42.664;23.256;2023-07-28T10:43:46;5.35;;;3.05;;
6527;SDS011;64597;42.664;23.256;2023-07-28T10:46:15;3.80;;;2.55;;
6527;SDS011;64597;42.664;23.256;2023-07-28T10:48:42;2.67;;;2.13;;
6527;SDS011;64597;42.664;23.256;2023-07-28T10:51:09;2.63;;;1.60;;
6527;SDS011;64597;42.664;23.256;2023-07-28T10:53:36;2.70;;;2.00;;
6527;SDS011;64597;42.664;23.256;2023-07-28T10:56:02;2.55;;;1.80;;
6527;SDS011;64597;42.664;23.256;2023-07-28T10:58:30;2.60;;;1.88;;
6527;SDS011;64597;42.664;23.256;2023-07-28T11:00:58;2.38;;;2.00;;
6527;SDS011;64597;42.664;23.256;2023-07-28T11:03:24;2.20;;;2.00;;
6527;SDS011;64597;42.664;23.256;2023-07-28T11:05:49;2.33;;;1.90;;
6527;SDS011;64597;42.664;23.256;2023-07-28T11:08:15;2.65;;;2.38;;
6527;SDS011;64597;42.664;23.256;2023-07-28T11:10:41;2.38;;;1.88;;
6527;SDS011;64597;42.664;23.256;2023-07-28T11:13:07;3.38;;;2.10;;
6527;SDS011;64597;42.664;23.256;2023-07-28T11:15:32;4.93;;;2.40;;
6527;SDS011;64597;42.664;23.256;2023-07-28T11:17:58;4.93;;;2.20;;
6527;SDS011;64597;42.664;23.256;2023-07-28T11:20:25;5.55;;;2.17;;
6527;SDS011;64597;42.664;23.256;2023-07-28T11:22:59;2.83;;;1.98;;
6527;SDS011;64597;42.664;23.256;2023-07-28T11:25:27;3.33;;;2.20;;
6527;SDS011;64597;42.664;23.256;2023-07-28T11:27:54;2.70;;;2.08;;
6527;SDS011;64597;42.664;23.256;2023-07-28T11:30:21;2.60;;;2.30;;
6527;SDS011;64597;42.664;23.256;2023-07-28T11:32:47;3.42;;;2.28;;
6527;SDS011;64597;42.664;23.256;2023-07-28T11:35:15;2.28;;;2.08;;
6527;SDS011;64597;42.664;23.256;2023-07-28T11:37:44;3.15;;;2.15;;
6527;SDS011;64597;42.664;23.256;2023-07-28T11:40:13;2.58;;;2.20;;
6527;SDS011;64597;42.664;23.256;2023-07-28T11:42:41;3.20;;;2.35;;
6527;SDS011;64597;42.664;23.256;2023-07-28T11:45:10;3.67;;;2.40;;
6527;SDS011;64597;42.664;23.256;2023-07-28T11:47:38;2.40;;;2.08;;
6527;SDS011;64597;42.664;23.256;2023-07-28T11:50:03;4.47;;;2.33;;
6527;SDS011;64597;42.664;23.256;2023-07-28T11:52:36;2.83;;;2.20;;
6527;SDS011;64597;42.664;23.256;2023-07-28T11:55:05;4.00;;;2.67;;
6527;SDS011;64597;42.664;23.256;2023-07-28T11:57:32;3.08;;;2.25;;
6527;SDS011;64597;42.664;23.256;2023-07-28T12:00:01;3.03;;;2.15;;
6527;SDS011;64597;42.664;23.256;2023-07-28T12:02:30;4.15;;;1.95;;
6527;SDS011;64597;42.664;23.256;2023-07-28T12:04:58;3.05;;;2.00;;
6527;SDS011;64597;42.664;23.256;2023-07-28T12:07:27;3.47;;;2.05;;
6527;SDS011;64597;42.664;23.256;2023-07-28T12:09:55;3.28;;;2.30;;
6527;SDS011;64597;42.664;23.256;2023-07-28T12:12:24;3.60;;;2.50;;
6527;SDS011;64597;42.664;23.256;2023-07-28T12:14:54;6.35;;;2.45;;
6527;SDS011;64597;42.664;23.256;2023-07-28T12:17:31;3.58;;;2.03;;
6527;SDS011;64597;42.664;23.256;2023-07-28T12:22:39;2.40;;;2.20;;
6527;SDS011;64597;42.664;23.256;2023-07-28T12:25:08;3.25;;;2.22;;
6527;SDS011;64597;42.664;23.256;2023-07-28T12:27:34;4.85;;;2.40;;
6527;SDS011;64597;42.664;23.256;2023-07-28T12:30:00;2.45;;;2.10;;
6527;SDS011;64597;42.664;23.256;2023-07-28T12:32:26;2.42;;;2.03;;
6527;SDS011;64597;42.664;23.256;2023-07-28T12:34:52;2.03;;;1.83;;
6527;SDS011;64597;42.664;23.256;2023-07-28T12:37:18;3.78;;;2.92;;
6527;SDS011;64597;42.664;23.256;2023-07-28T12:39:45;3.17;;;2.45;;
6527;SDS011;64597;42.664;23.256;2023-07-28T12:42:11;2.63;;;2.30;;
6527;SDS011;64597;42.664;23.256;2023-07-28T12:44:37;4.00;;;2.40;;
6527;SDS011;64597;42.664;23.256;2023-07-28T12:47:03;5.20;;;2.83;;
6527;SDS011;64597;42.664;23.256;2023-07-28T12:49:29;2.70;;;2.10;;
6527;SDS011;64597;42.664;23.256;2023-07-28T12:51:58;3.42;;;2.15;;
6527;SDS011;64597;42.664;23.256;2023-07-28T12:54:24;2.22;;;2.00;;
6527;SDS011;64597;42.664;23.256;2023-07-28T12:56:50;3.35;;;2.35;;
6527;SDS011;64597;42.664;23.256;2023-07-28T12:59:16;2.83;;;2.22;;
6527;SDS011;64597;42.664;23.256;2023-07-28T13:01:41;2.92;;;2.20;;
6527;SDS011;64597;42.664;23.256;2023-07-28T13:04:07;2.42;;;2.22;;
6527;SDS011;64597;42.664;23.256;2023-07-28T13:06:32;3.03;;;1.88;;
6527;SDS011;64597;42.664;23.256;2023-07-28T13:08:59;2.10;;;1.90;;
6527;SDS011;64597;42.664;23.256;2023-07-28T13:11:24;2.40;;;2.20;;
6527;SDS011;64597;42.664;23.256;2023-07-28T13:13:50;3.40;;;2.85;;
6527;SDS011;64597;42.664;23.256;2023-07-28T13:16:15;5.32;;;3.00;;
6527;SDS011;64597;42.664;23.256;2023-07-28T13:18:44;2.10;;;1.90;;
6527;SDS011;64597;42.664;23.256;2023-07-28T13:21:10;3.28;;;2.35;;
6527;SDS011;64597;42.664;23.256;2023-07-28T13:23:39;4.40;;;2.60;;
6527;SDS011;64597;42.664;23.256;2023-07-28T13:26:05;3.80;;;2.08;;
6527;SDS011;64597;42.664;23.256;2023-07-28T13:28:31;3.65;;;2.80;;
6527;SDS011;64597;42.664;23.256;2023-07-28T13:30:59;4.18;;;2.10;;
6527;SDS011;64597;42.664;23.256;2023-07-28T13:33:26;2.63;;;2.38;;
6527;SDS011;64597;42.664;23.256;2023-07-28T13:35:52;2.83;;;2.22;;
6527;SDS011;64597;42.664;23.256;2023-07-28T13:38:17;2.30;;;2.10;;
6527;SDS011;64597;42.664;23.256;2023-07-28T13:40:43;3.03;;;2.00;;
6527;SDS011;64597;42.664;23.256;2023-07-28T13:43:08;3.17;;;1.95;;
6527;SDS011;64597;42.664;23.256;2023-07-28T13:45:33;3.30;;;1.92;;
6527;SDS011;64597;42.664;23.256;2023-07-28T13:47:59;2.25;;;2.05;;
6527;SDS011;64597;42.664;23.256;2023-07-28T13:50:25;2.72;;;2.38;;
6527;SDS011;64597;42.664;23.256;2023-07-28T13:52:51;3.38;;;2.88;;
6527;SDS011;64597;42.664;23.256;2023-07-28T13:55:16;2.58;;;2.38;;
6527;SDS011;64597;42.664;23.256;2023-07-28T13:57:42;5.95;;;3.78;;
6527;SDS011;64597;42.664;23.256;2023-07-28T14:00:08;2.50;;;2.20;;
6527;SDS011;64597;42.664;23.256;2023-07-28T14:02:37;2.80;;;2.50;;
6527;SDS011;64597;42.664;23.256;2023-07-28T14:05:04;2.70;;;2.50;;
6527;SDS011;64597;42.664;23.256;2023-07-28T14:07:30;4.82;;;2.30;;
6527;SDS011;64597;42.664;23.256;2023-07-28T14:09:56;3.75;;;2.35;;
6527;SDS011;64597;42.664;23.256;2023-07-28T14:12:21;3.17;;;2.30;;
6527;SDS011;64597;42.664;23.256;2023-07-28T14:14:47;5.93;;;2.17;;
6527;SDS011;64597;42.664;23.256;2023-07-28T14:17:14;3.85;;;2.72;;
6527;SDS011;64597;42.664;23.256;2023-07-28T14:19:40;4.10;;;2.72;;
6527;SDS011;64597;42.664;23.256;2023-07-28T14:22:06;4.30;;;2.65;;
6527;SDS011;64597;42.664;23.256;2023-07-28T14:24:31;2.85;;;2.20;;
6527;SDS011;64597;42.664;23.256;2023-07-28T14:26:57;4.38;;;2.42;;
6527;SDS011;64597;42.664;23.256;2023-07-28T14:29:23;3.25;;;2.47;;
6527;SDS011;64597;42.664;23.256;2023-07-28T14:31:48;4.65;;;2.50;;
6527;SDS011;64597;42.664;23.256;2023-07-28T14:34:14;3.30;;;2.25;;
6527;SDS011;64597;42.664;23.256;2023-07-28T14:36:39;2.60;;;2.10;;
6527;SDS011;64597;42.664;23.256;2023-07-28T14:39:05;2.40;;;2.20;;
6527;SDS011;64597;42.664;23.256;2023-07-28T14:41:31;5.68;;;2.72;;
6527;SDS011;64597;42.664;23.256;2023-07-28T14:43:57;2.28;;;1.80;;
6527;SDS011;64597;42.664;23.256;2023-07-28T14:46:24;4.43;;;2.17;;
6527;SDS011;64597;42.664;23.256;2023-07-28T14:48:50;3.03;;;2.40;;
6527;SDS011;64597;42.664;23.256;2023-07-28T14:51:16;3.25;;;2.60;;
6527;SDS011;64597;42.664;23.256;2023-07-28T14:53:42;2.60;;;2.38;;
6527;SDS011;64597;42.664;23.256;2023-07-28T14:56:11;4.35;;;2.40;;
6527;SDS011;64597;42.664;23.256;2023-07-28T14:58:38;3.65;;;2.67;;
6527;SDS011;64597;42.664;23.256;2023-07-28T15:01:07;6.75;;;3.25;;
6527;SDS011;64597;42.664;23.256;2023-07-28T15:03:33;4.25;;;2.30;;